WetterOnline ( https://www.wetteronline.de )

Wetter aktuell Lacugnano

Aktuelles Wetter: Frontone (574m)

6-stündlich | Neueste Meldungen
Ortszeit Temperatur Wetter
Sa, 23.01. 19:00 6.2° C leicht bewölkt
Sa, 23.01. 13:00 6.2° C wolkig
Sa, 23.01. 7:00 6.2° C bedeckt
Sa, 23.01. 1:00 8.0° C wolkig
Fr, 22.01. 19:00 9.2° C bedeckt
Fr, 22.01. 13:00 9.8° C leichter Regen
Fr, 22.01. 7:00 8.8° C leichter Regen
Fr, 22.01. 1:00 8.8° C leicht bewölkt
Ortszeit Temperatur Wetter
So, 24.01. 0:00 7.2° C leicht bewölkt
Sa, 23.01. 23:00 7.0° C leicht bewölkt
Sa, 23.01. 22:00 6.0° C leicht bewölkt
Sa, 23.01. 21:00 5.8° C leicht bewölkt
Sa, 23.01. 20:00 6.2° C leicht bewölkt
Sa, 23.01. 19:00 6.2° C leicht bewölkt
Ortszeit Relative Feuchte Sichtweite
Sa, 23.01. 19:00 65% 35 km
Sa, 23.01. 13:00 64% 20 km
Sa, 23.01. 7:00 82% 15 km
Sa, 23.01. 1:00 68% 25 km
Fr, 22.01. 19:00 84% 15 km
Fr, 22.01. 13:00 80% 15 km
Fr, 22.01. 7:00 88% 15 km
Fr, 22.01. 1:00 68% 20 km
Ortszeit Relative Feuchte Sichtweite
So, 24.01. 0:00 63% 35 km
Sa, 23.01. 23:00 71% 30 km
Sa, 23.01. 22:00 75% 30 km
Sa, 23.01. 21:00 85% 12 km
Sa, 23.01. 20:00 66% 35 km
Sa, 23.01. 19:00 65% 35 km
Ortszeit Niederschlagsmenge Niederschlagsart
Sa, 23.01. 19:00 5 l/m2 in 12 Std. -
Sa, 23.01. 13:00 5 l/m2 in 6 Std. Regen
Sa, 23.01. 7:00 14 l/m2 in 12 Std. Regen
Sa, 23.01. 1:00 10 l/m2 in 6 Std. Regen
Fr, 22.01. 19:00 5 l/m2 in 12 Std. Regen
Fr, 22.01. 13:00 3 l/m2 in 6 Std. Regen
Fr, 22.01. 7:00 1 l/m2 in 12 Std. Regen
Fr, 22.01. 1:00 0.0 l/m2 in 6 Std. -
Ortszeit Niederschlagsmenge Niederschlagsart
So, 24.01. 0:00 keine Meldung -
Sa, 23.01. 23:00 keine Meldung -
Sa, 23.01. 22:00 keine Meldung -
Sa, 23.01. 21:00 keine Meldung -
Sa, 23.01. 20:00 keine Meldung -
Sa, 23.01. 19:00 keine Meldung -
Ortszeit Stärke Spitze Richtung
km/h Bft. km/h Grad Sektor
Sa, 23.01. 19:00 59 7 - 210° SW
Sa, 23.01. 13:00 83 9 - 210° SW
Sa, 23.01. 7:00 33 5 - 200° S
Sa, 23.01. 1:00 22 4 - 200° S
Fr, 22.01. 19:00 33 5 - 200° S
Fr, 22.01. 13:00 19 3 - 220° SW
Fr, 22.01. 7:00 33 5 - 200° S
Fr, 22.01. 1:00 26 4 - 230° SW
Ortszeit Stärke Spitze Richtung
km/h Bft. km/h Grad Sektor
So, 24.01. 0:00 65 8 - 220° SW
Sa, 23.01. 23:00 59 7 - 200° S
Sa, 23.01. 22:00 63 8 - 180° S
Sa, 23.01. 21:00 56 7 - 200° S
Sa, 23.01. 20:00 63 8 - 210° SW
Sa, 23.01. 19:00 59 7 - 210° SW
Ortszeit Untergrenze Bedeckung Gattung
total tief tief mittel hoch
Sa, 23.01. 19:00 960 m 2/8 2/8 Cu - -
Sa, 23.01. 13:00 870 m 8/8 3/8 Cu As -
Sa, 23.01. 7:00 510 m 8/8 8/8 Cu - -
Sa, 23.01. 1:00 600 m 6/8 4/8 Cu Ac -
Fr, 22.01. 19:00 600 m 8/8 8/8 Cu - -
Fr, 22.01. 13:00 600 m 8/8 6/8 Cu As -
Fr, 22.01. 7:00 720 m 7/8 4/8 Cu As Ci
Fr, 22.01. 1:00 780 m 5/8 3/8 Cu Ac Ci
Ortszeit Bedeckungsgrad in Achtel und Wolkenuntergrenze
So, 24.01. 0:00 4(870m)
Sa, 23.01. 23:00 3(870m) 3(2100m)
Sa, 23.01. 22:00 3(870m)
Sa, 23.01. 21:00 4(900m)
Sa, 23.01. 20:00 2(900m)
Sa, 23.01. 19:00 2(960m)
Ortszeit Stationsdruck (hPa) Tendenz (hPa in 3 Std.)
Sa, 23.01. 19:00 928 + 0,6
Sa, 23.01. 13:00 925 - 4,4
Sa, 23.01. 7:00 927 + 1,9
Sa, 23.01. 1:00 929 - 1,8
Fr, 22.01. 19:00 932 - 2,8
Fr, 22.01. 13:00 938 - 2,0
Fr, 22.01. 7:00 941 - 0,7
Fr, 22.01. 1:00 945 - 1,7
Ortszeit Stationsdruck (hPa) Tendenz (hPa in 3 Std.)
So, 24.01. 0:00 927 - 0,7
Sa, 23.01. 23:00 928 0,0
Sa, 23.01. 22:00 928 + 0,2
Sa, 23.01. 21:00 928 - 0,2
Sa, 23.01. 20:00 928 + 0,3
Sa, 23.01. 19:00 928 + 0,6
Ortszeit Schneehöhe (cm)
Sa, 23.01. 19:00 -
Sa, 23.01. 13:00 -
Sa, 23.01. 7:00 -
Sa, 23.01. 1:00 -
Fr, 22.01. 19:00 -
Fr, 22.01. 13:00 -
Fr, 22.01. 7:00 0
Fr, 22.01. 1:00 -
Ortszeit Schneehöhe (cm)
So, 24.01. 0:00 -
Sa, 23.01. 23:00 -
Sa, 23.01. 22:00 -
Sa, 23.01. 21:00 -
Sa, 23.01. 20:00 -
Sa, 23.01. 19:00 -
Link zu dieser Seite / Seite empfehlen

Das Wetter in ...